Time;durP1;ratioP1;P1;durP2;ratioP2;P2;SDS_P1;SDS_P2;PMS_P1;PMS_P2;Temp;Humidity;BMP_temperature;BMP_pressure;BME280_temperature;BME280_humidity;BME280_pressure;Samples;Min_cycle;Max_cycle;Signal;HPM_P1;HPM_P2
2022/11/08 00:01:57;;;;;;;;;;;11.90;99.90;;;;;;5074004;28;20374;-68
2022/11/08 00:04:23;;;;;;;;;;;11.80;99.90;;;;;;5074094;28;19916;-68
2022/11/08 00:15:06;;;;;;;;;;;11.70;99.90;;;;;;5073745;28;19909;-67
2022/11/08 00:17:31;;;;;;;;;;;11.60;99.90;;;;;;5074189;28;19908;-68
2022/11/08 00:19:57;;;;;;;;;;;11.60;99.90;;;;;;5089440;28;19908;-68
2022/11/08 00:22:23;;;;;;;;;;;11.60;99.90;;;;;;5089538;28;19912;-67
2022/11/08 00:24:50;;;;;;;;;;;11.70;99.90;;;;;;5089387;28;19999;-67
2022/11/08 00:27:17;;;;;;;;;;;11.70;99.90;;;;;;5073765;28;19908;-67
2022/11/08 00:29:42;;;;;;;;;;;11.70;99.90;;;;;;5089506;28;19908;-67
2022/11/08 00:32:10;;;;;;;;;;;11.70;99.90;;;;;;5073837;28;19916;-68
2022/11/08 00:34:35;;;;;;;;;;;11.70;99.90;;;;;;5073691;28;20366;-68
2022/11/08 00:37:02;;;;;;;;;;;11.70;99.90;;;;;;5089265;28;19962;-67
2022/11/08 00:39:27;;;;;;;;;;;11.60;99.90;;;;;;5073635;28;19931;-67
2022/11/08 00:41:53;;;;;;;;;;;11.60;99.90;;;;;;5072220;28;19912;-68
2022/11/08 00:44:18;;;;;;;;;;;11.70;99.90;;;;;;5073517;28;19908;-68
2022/11/08 00:46:44;;;;;;;;;;;11.70;99.90;;;;;;5073558;28;20449;-68
2022/11/08 00:49:09;;;;;;;;;;;11.60;99.90;;;;;;5073578;28;20281;-68
2022/11/08 00:51:35;;;;;;;;;;;11.70;99.90;;;;;;5073785;28;19909;-68
2022/11/08 00:54:02;;;;;;;;;;;11.70;99.90;;;;;;5073505;28;19915;-67
2022/11/08 00:56:27;;;;;;;;;;;11.60;99.90;;;;;;5073509;28;19908;-67
2022/11/08 00:58:52;;;;;;;;;;;11.70;99.90;;;;;;5073465;28;20012;-68
2022/11/08 01:01:19;;;;;;;;;;;11.70;99.90;;;;;;5073451;28;19909;-67
2022/11/08 01:03:45;;;;;;;;;;;11.60;99.90;;;;;;5073388;28;19909;-68
2022/11/08 01:06:11;;;;;;;;;;;11.50;99.90;;;;;;5073291;28;19912;-67
2022/11/08 01:08:37;;;;;;;;;;;11.50;99.90;;;;;;5088973;28;20384;-68
2022/11/08 01:11:05;;;;;;;;;;;11.40;99.90;;;;;;5073331;28;19912;-67
2022/11/08 01:13:31;;;;;;;;;;;11.40;99.90;;;;;;5073285;28;19916;-68
2022/11/08 01:15:57;;;;;;;;;;;11.40;99.90;;;;;;5089183;28;20354;-68
2022/11/08 01:18:22;;;;;;;;;;;11.30;99.90;;;;;;5073288;28;19915;-67
2022/11/08 01:20:48;;;;;;;;;;;11.30;99.90;;;;;;5073493;28;19909;-67
2022/11/08 01:23:13;;;;;;;;;;;11.30;99.90;;;;;;5073241;28;20378;-68
2022/11/08 01:25:40;;;;;;;;;;;11.30;99.90;;;;;;5073240;28;19919;-68
2022/11/08 01:28:06;;;;;;;;;;;11.30;99.90;;;;;;5073237;28;19908;-68
2022/11/08 01:30:34;;;;;;;;;;;11.30;99.90;;;;;;5073130;28;19909;-68
2022/11/08 01:32:59;;;;;;;;;;;11.30;99.90;;;;;;5073098;28;19909;-68
2022/11/08 01:35:25;;;;;;;;;;;11.30;99.90;;;;;;5073095;28;19909;-68
2022/11/08 01:37:50;;;;;;;;;;;11.40;99.90;;;;;;5073037;28;19916;-68
2022/11/08 01:40:16;;;;;;;;;;;11.50;99.90;;;;;;5073035;28;20358;-68
2022/11/08 01:42:42;;;;;;;;;;;11.50;99.90;;;;;;5073032;28;19952;-67
2022/11/08 01:45:08;;;;;;;;;;;11.50;99.90;;;;;;5072731;28;19927;-67
2022/11/08 01:47:34;;;;;;;;;;;11.50;99.90;;;;;;5071743;28;19908;-67
2022/11/08 01:50:03;;;;;;;;;;;11.60;99.90;;;;;;5072982;28;20263;-68
2022/11/08 01:52:32;;;;;;;;;;;11.60;99.90;;;;;;5089385;28;19908;-67
2022/11/08 01:55:01;;;;;;;;;;;11.70;99.90;;;;;;5092320;28;19912;-68
2022/11/08 01:57:31;;;;;;;;;;;11.80;99.90;;;;;;5076501;28;19912;-67
2022/11/08 02:00:00;;;;;;;;;;;11.80;99.90;;;;;;5076461;28;20332;-67
2022/11/08 02:02:26;;;;;;;;;;;11.90;99.90;;;;;;5076404;28;19908;-68
2022/11/08 02:04:52;;;;;;;;;;;11.90;99.90;;;;;;5076273;28;19909;-67
2022/11/08 02:07:17;;;;;;;;;;;12.10;99.90;;;;;;5076374;28;19958;-68
2022/11/08 02:09:44;;;;;;;;;;;12.10;99.90;;;;;;5076331;28;19962;-68
2022/11/08 02:12:10;;;;;;;;;;;12.10;99.90;;;;;;5092076;28;19908;-68
2022/11/08 02:14:36;;;;;;;;;;;12.20;99.90;;;;;;5076212;28;20384;-68
2022/11/08 02:17:02;;;;;;;;;;;12.20;99.90;;;;;;5076156;28;19995;-68
2022/11/08 02:19:37;;;;;;;;;;;12.20;99.90;;;;;;5076088;28;20285;-69
2022/11/08 02:22:04;;;;;;;;;;;12.20;99.90;;;;;;5076055;28;20417;-68
2022/11/08 02:24:30;;;;;;;;;;;12.30;99.90;;;;;;5076023;28;20377;-68
2022/11/08 02:26:56;;;;;;;;;;;12.30;99.90;;;;;;5075842;28;19912;-68
2022/11/08 02:29:23;;;;;;;;;;;12.40;99.90;;;;;;5075930;28;19908;-69
2022/11/08 02:31:48;;;;;;;;;;;12.40;99.90;;;;;;5076156;28;19917;-68
2022/11/08 02:34:14;;;;;;;;;;;12.50;99.90;;;;;;5075813;28;19909;-68
2022/11/08 02:36:41;;;;;;;;;;;12.50;99.90;;;;;;5075769;28;20376;-67
2022/11/08 02:39:06;;;;;;;;;;;12.60;99.90;;;;;;5075748;28;20366;-68
2022/11/08 02:41:32;;;;;;;;;;;12.50;99.90;;;;;;5091361;28;19915;-68
2022/11/08 02:43:57;;;;;;;;;;;12.60;99.90;;;;;;5075606;28;19952;-67
2022/11/08 02:46:23;;;;;;;;;;;12.60;99.90;;;;;;5075390;28;20366;-68
2022/11/08 02:48:48;;;;;;;;;;;12.60;99.90;;;;;;5075550;28;20007;-68
2022/11/08 02:51:14;;;;;;;;;;;12.60;99.90;;;;;;5075511;28;19908;-68
2022/11/08 02:53:39;;;;;;;;;;;12.60;99.90;;;;;;5075451;28;19908;-67
2022/11/08 02:56:05;;;;;;;;;;;12.60;99.90;;;;;;5075425;28;20105;-68
2022/11/08 02:58:30;;;;;;;;;;;12.70;99.90;;;;;;5075380;28;19908;-68
2022/11/08 03:00:55;;;;;;;;;;;12.70;99.90;;;;;;5075332;28;19908;-68
2022/11/08 03:03:21;;;;;;;;;;;12.70;99.90;;;;;;5075287;28;19916;-68
2022/11/08 03:05:46;;;;;;;;;;;12.70;99.90;;;;;;5075144;28;20293;-68
2022/11/08 03:08:13;;;;;;;;;;;12.70;99.90;;;;;;5075462;28;19958;-69
2022/11/08 03:10:38;;;;;;;;;;;12.70;99.90;;;;;;5075126;28;19908;-68
2022/11/08 03:13:04;;;;;;;;;;;12.60;99.90;;;;;;5090704;28;20007;-68
2022/11/08 03:15:29;;;;;;;;;;;12.60;99.90;;;;;;5074997;28;20325;-68
2022/11/08 03:17:55;;;;;;;;;;;12.60;99.90;;;;;;5075229;28;19916;-68
2022/11/08 03:20:21;;;;;;;;;;;12.60;99.90;;;;;;5075184;28;20016;-68
2022/11/08 03:22:47;;;;;;;;;;;12.60;99.90;;;;;;5090615;28;19940;-68
2022/11/08 03:25:12;;;;;;;;;;;12.60;99.90;;;;;;5075044;28;19912;-68
2022/11/08 03:27:38;;;;;;;;;;;12.70;99.90;;;;;;5090401;28;19909;-67
2022/11/08 03:30:05;;;;;;;;;;;12.60;99.90;;;;;;5074952;28;19935;-68
2022/11/08 03:32:30;;;;;;;;;;;12.70;99.90;;;;;;5090255;28;19910;-68
2022/11/08 03:34:58;;;;;;;;;;;12.60;99.90;;;;;;5074595;28;19915;-68
2022/11/08 03:37:24;;;;;;;;;;;12.70;99.90;;;;;;5074817;28;19913;-68
2022/11/08 03:39:49;;;;;;;;;;;12.70;99.90;;;;;;5074522;28;19952;-68
2022/11/08 03:42:15;;;;;;;;;;;12.70;99.90;;;;;;5074522;28;19908;-68
2022/11/08 03:44:40;;;;;;;;;;;12.70;99.90;;;;;;5074154;28;19916;-68
2022/11/08 03:47:05;;;;;;;;;;;12.70;99.90;;;;;;5074400;28;19908;-67
2022/11/08 03:49:31;;;;;;;;;;;12.70;99.90;;;;;;5074357;28;19909;-68
2022/11/08 03:51:56;;;;;;;;;;;12.60;99.90;;;;;;5074282;28;20346;-68
2022/11/08 03:54:22;;;;;;;;;;;12.50;99.90;;;;;;5074231;28;19908;-68
2022/11/08 03:56:47;;;;;;;;;;;12.30;99.90;;;;;;5074476;28;19908;-67
2022/11/08 03:59:13;;;;;;;;;;;12.20;99.90;;;;;;5074204;28;20014;-67
2022/11/08 04:01:38;;;;;;;;;;;12.10;99.90;;;;;;5056338;28;19916;-68
2022/11/08 04:04:05;;;;;;;;;;;11.90;99.90;;;;;;5074352;28;19908;-68
2022/11/08 04:06:30;;;;;;;;;;;11.90;99.90;;;;;;5073972;28;19961;-68
2022/11/08 04:08:56;;;;;;;;;;;11.80;99.90;;;;;;5074011;28;20011;-68
2022/11/08 04:16:54;;;;;;;;;;;11.60;99.90;;;;;;5073464;28;19961;-68
2022/11/08 04:22:06;;;;;;;;;;;11.50;99.90;;;;;;5073745;28;19916;-67
2022/11/08 04:24:32;;;;;;;;;;;11.40;99.90;;;;;;5073820;28;19977;-68
2022/11/08 04:26:57;;;;;;;;;;;11.30;99.90;;;;;;5089373;28;19912;-69
2022/11/08 04:29:23;;;;;;;;;;;11.30;99.90;;;;;;5074077;28;20025;-68
2022/11/08 04:31:48;;;;;;;;;;;11.30;99.90;;;;;;5073760;28;19970;-67
2022/11/08 04:34:13;;;;;;;;;;;11.30;99.90;;;;;;5073762;28;19952;-68
2022/11/08 04:36:39;;;;;;;;;;;11.30;99.90;;;;;;5073672;28;19912;-68
2022/11/08 04:39:04;;;;;;;;;;;11.30;99.90;;;;;;5073652;28;19909;-68
2022/11/08 04:41:30;;;;;;;;;;;11.20;99.90;;;;;;5073656;28;19908;-67
2022/11/08 04:43:56;;;;;;;;;;;11.20;99.90;;;;;;5073564;28;20034;-67
2022/11/08 04:46:23;;;;;;;;;;;11.20;99.90;;;;;;5073383;28;20366;-67
2022/11/08 04:48:49;;;;;;;;;;;11.30;99.90;;;;;;5073521;28;20418;-68
2022/11/08 04:51:17;;;;;;;;;;;11.20;99.90;;;;;;5089225;28;19916;-67
2022/11/08 04:53:43;;;;;;;;;;;11.20;99.90;;;;;;5073524;28;20328;-69
2022/11/08 04:56:10;;;;;;;;;;;11.10;99.90;;;;;;5089151;28;19908;-68
2022/11/08 04:58:37;;;;;;;;;;;11.20;99.90;;;;;;5073434;28;19908;-67
2022/11/08 05:01:03;;;;;;;;;;;11.20;99.90;;;;;;5073459;28;19952;-68
2022/11/08 05:03:29;;;;;;;;;;;11.10;99.90;;;;;;5073426;28;19912;-67
2022/11/08 05:05:54;;;;;;;;;;;11.10;99.90;;;;;;5089044;28;19962;-68
2022/11/08 05:08:20;;;;;;;;;;;11.10;99.90;;;;;;5073391;28;19909;-67
2022/11/08 05:10:45;;;;;;;;;;;11.20;99.90;;;;;;5073304;28;20015;-67
2022/11/08 05:13:11;;;;;;;;;;;11.20;99.90;;;;;;5073346;28;19916;-67
2022/11/08 05:15:36;;;;;;;;;;;11.10;99.90;;;;;;5073519;28;19915;-68
2022/11/08 05:18:02;;;;;;;;;;;11.10;99.90;;;;;;5073253;28;19908;-67
2022/11/08 05:23:27;;;;;;;;;;;11.00;99.90;;;;;;5086118;28;19995;-68
2022/11/08 05:25:54;;;;;;;;;;;10.90;99.90;;;;;;5088668;28;19920;-67
2022/11/08 05:28:20;;;;;;;;;;;10.90;99.90;;;;;;5075337;28;20050;-67
2022/11/08 05:30:53;;;;;;;;;;;10.90;99.90;;;;;;5059077;28;20251;-67
2022/11/08 05:33:19;;;;;;;;;;;10.90;99.90;;;;;;5076954;28;19908;-68
2022/11/08 05:35:44;;;;;;;;;;;10.90;99.90;;;;;;5076919;28;19915;-67
2022/11/08 05:38:10;;;;;;;;;;;10.90;99.90;;;;;;5076883;28;19915;-68
2022/11/08 05:40:35;;;;;;;;;;;10.90;99.90;;;;;;5076825;28;19908;-67
2022/11/08 05:43:01;;;;;;;;;;;10.80;99.90;;;;;;5076775;28;19930;-68
2022/11/08 05:45:26;;;;;;;;;;;10.80;99.90;;;;;;5092201;28;19990;-67
2022/11/08 05:47:52;;;;;;;;;;;10.80;99.90;;;;;;5076689;28;19912;-67
2022/11/08 05:50:17;;;;;;;;;;;10.70;99.90;;;;;;5076604;28;20286;-67
2022/11/08 05:52:43;;;;;;;;;;;10.70;99.90;;;;;;5076618;28;20305;-69
2022/11/08 05:55:08;;;;;;;;;;;10.60;99.90;;;;;;5092220;28;19908;-67
2022/11/08 05:57:34;;;;;;;;;;;10.60;99.90;;;;;;5092216;28;20523;-67
2022/11/08 05:59:59;;;;;;;;;;;10.50;99.90;;;;;;5076458;28;19908;-68
2022/11/08 06:02:25;;;;;;;;;;;10.50;99.90;;;;;;5076383;28;19908;-67
2022/11/08 06:04:50;;;;;;;;;;;10.50;99.90;;;;;;5076647;28;19909;-67
2022/11/08 06:07:15;;;;;;;;;;;10.50;99.90;;;;;;5091961;28;19915;-68
2022/11/08 06:09:41;;;;;;;;;;;10.50;99.90;;;;;;5091989;28;20381;-68
2022/11/08 06:12:06;;;;;;;;;;;10.50;99.90;;;;;;5076255;28;20415;-68
2022/11/08 06:14:32;;;;;;;;;;;10.50;99.90;;;;;;5076506;28;19909;-68
2022/11/08 06:16:57;;;;;;;;;;;10.60;99.90;;;;;;5076424;28;19912;-68
2022/11/08 06:19:23;;;;;;;;;;;10.60;99.90;;;;;;5076143;28;19919;-68
2022/11/08 06:21:49;;;;;;;;;;;10.50;99.90;;;;;;5076104;28;20286;-68
2022/11/08 06:24:16;;;;;;;;;;;10.50;99.90;;;;;;5075996;28;19948;-68
2022/11/08 06:26:42;;;;;;;;;;;10.50;99.90;;;;;;5074545;28;20476;-68
2022/11/08 06:29:07;;;;;;;;;;;10.50;99.90;;;;;;5075874;28;19952;-67
2022/11/08 06:31:32;;;;;;;;;;;10.60;99.90;;;;;;5076115;28;19908;-68
2022/11/08 06:33:58;;;;;;;;;;;10.60;99.90;;;;;;5075837;28;19909;-68
2022/11/08 06:36:23;;;;;;;;;;;10.70;99.90;;;;;;5075884;28;20447;-68
2022/11/08 06:38:52;;;;;;;;;;;10.60;99.90;;;;;;5075432;28;19916;-68
2022/11/08 06:41:18;;;;;;;;;;;10.70;99.90;;;;;;5075710;28;20392;-68
2022/11/08 06:43:43;;;;;;;;;;;10.70;99.90;;;;;;5076099;28;20005;-68
2022/11/08 06:46:09;;;;;;;;;;;10.80;99.90;;;;;;5087877;28;19921;-67
2022/11/08 06:48:34;;;;;;;;;;;10.80;99.90;;;;;;5055522;28;19909;-68
2022/11/08 06:51:00;;;;;;;;;;;10.90;99.90;;;;;;5071253;28;20429;-67
2022/11/08 06:53:25;;;;;;;;;;;10.90;99.90;;;;;;5055461;28;19915;-68
2022/11/08 06:55:51;;;;;;;;;;;10.90;99.90;;;;;;5070814;28;20325;-67
2022/11/08 06:58:16;;;;;;;;;;;11.00;99.90;;;;;;5047702;28;19935;-67
2022/11/08 07:00:42;;;;;;;;;;;11.00;99.90;;;;;;5035501;28;19917;-69
2022/11/08 07:03:08;;;;;;;;;;;11.10;99.90;;;;;;5028625;28;19913;-68
2022/11/08 07:05:33;;;;;;;;;;;11.10;99.90;;;;;;5040469;28;20303;-67
2022/11/08 07:07:59;;;;;;;;;;;11.20;99.90;;;;;;5039399;28;19967;-68
2022/11/08 07:10:26;;;;;;;;;;;11.30;99.90;;;;;;5039518;28;19958;-68
2022/11/08 07:13:00;;;;;;;;;;;11.40;99.90;;;;;;5045994;28;19916;-68
2022/11/08 07:15:25;;;;;;;;;;;11.50;99.90;;;;;;5028885;28;19914;-68
2022/11/08 07:17:51;;;;;;;;;;;12.10;99.90;;;;;;5026067;28;20051;-68
2022/11/08 07:20:16;;;;;;;;;;;12.90;99.90;;;;;;5040788;28;19914;-68
2022/11/08 07:22:42;;;;;;;;;;;13.30;99.90;;;;;;5025614;28;19921;-68
2022/11/08 07:25:07;;;;;;;;;;;13.90;99.90;;;;;;5026293;28;19920;-67
2022/11/08 07:27:33;;;;;;;;;;;14.30;99.90;;;;;;5028636;28;19967;-68
2022/11/08 07:29:59;;;;;;;;;;;15.10;99.90;;;;;;5025980;28;20001;-68
2022/11/08 07:32:24;;;;;;;;;;;15.70;99.90;;;;;;5038491;28;19924;-68
2022/11/08 07:34:50;;;;;;;;;;;16.20;99.90;;;;;;5054404;28;19952;-68
2022/11/08 07:37:15;;;;;;;;;;;16.60;99.90;;;;;;5044425;28;19992;-68
2022/11/08 07:39:41;;;;;;;;;;;16.70;99.90;;;;;;5023253;28;20272;-67
2022/11/08 07:42:06;;;;;;;;;;;16.30;99.90;;;;;;5036712;28;19952;-68
2022/11/08 07:44:31;;;;;;;;;;;15.40;99.90;;;;;;5041143;28;19920;-68
2022/11/08 07:46:57;;;;;;;;;;;15.10;99.90;;;;;;5054111;28;19919;-68
2022/11/08 07:49:22;;;;;;;;;;;14.70;99.90;;;;;;5064034;28;19913;-67
2022/11/08 07:51:48;;;;;;;;;;;14.40;99.90;;;;;;5044404;28;19958;-68
2022/11/08 07:54:13;;;;;;;;;;;14.40;99.90;;;;;;5044083;28;20011;-68
2022/11/08 07:56:39;;;;;;;;;;;14.70;99.90;;;;;;5048765;28;19913;-69
2022/11/08 07:59:04;;;;;;;;;;;15.30;99.90;;;;;;5046096;28;19912;-69
2022/11/08 08:01:29;;;;;;;;;;;16.30;99.90;;;;;;5044874;28;19924;-68
2022/11/08 08:03:55;;;;;;;;;;;16.90;99.90;;;;;;5065363;28;19912;-68
2022/11/08 08:06:22;;;;;;;;;;;18.30;99.90;;;;;;5055277;28;19963;-69
2022/11/08 08:08:47;;;;;;;;;;;18.70;99.90;;;;;;5052047;28;19920;-69
2022/11/08 08:11:14;;;;;;;;;;;18.70;99.90;;;;;;5069472;28;19913;-68
2022/11/08 08:13:39;;;;;;;;;;;18.80;99.90;;;;;;5046312;28;19913;-68
2022/11/08 08:16:04;;;;;;;;;;;19.20;99.90;;;;;;5050925;28;19916;-68
2022/11/08 08:18:30;;;;;;;;;;;19.10;99.90;;;;;;5053758;28;19909;-68
2022/11/08 08:20:56;;;;;;;;;;;18.90;99.90;;;;;;5053837;28;19913;-69
2022/11/08 08:23:21;;;;;;;;;;;18.70;99.90;;;;;;5045759;28;19993;-69
2022/11/08 08:25:47;;;;;;;;;;;18.50;99.90;;;;;;5052978;28;20082;-68
2022/11/08 08:28:12;;;;;;;;;;;18.20;99.90;;;;;;5059609;28;19913;-68
2022/11/08 08:30:39;;;;;;;;;;;17.50;99.90;;;;;;5054122;28;19919;-68
2022/11/08 08:33:07;;;;;;;;;;;17.50;99.90;;;;;;5054494;28;20277;-68
2022/11/08 08:35:33;;;;;;;;;;;17.20;99.90;;;;;;5039095;28;19944;-69
2022/11/08 08:37:59;;;;;;;;;;;16.80;99.90;;;;;;5044542;28;19913;-68
2022/11/08 08:40:25;;;;;;;;;;;16.40;99.90;;;;;;5073323;28;19909;-67
2022/11/08 08:42:50;;;;;;;;;;;16.20;99.90;;;;;;5059590;28;19921;-68
2022/11/08 08:45:16;;;;;;;;;;;15.80;99.90;;;;;;5061996;28;19921;-68
2022/11/08 08:47:41;;;;;;;;;;;15.80;99.90;;;;;;5053158;28;19967;-68
2022/11/08 08:50:07;;;;;;;;;;;16.40;99.90;;;;;;5056440;28;19919;-68
2022/11/08 08:52:32;;;;;;;;;;;16.90;99.90;;;;;;5038206;28;20256;-68
2022/11/08 08:54:58;;;;;;;;;;;17.50;99.90;;;;;;5035941;28;19913;-68
2022/11/08 08:57:23;;;;;;;;;;;17.40;99.90;;;;;;5052953;28;19913;-68
2022/11/08 08:59:49;;;;;;;;;;;17.10;99.90;;;;;;5052333;28;19921;-68
2022/11/08 09:02:14;;;;;;;;;;;16.80;99.90;;;;;;5055067;28;19916;-68
2022/11/08 09:04:40;;;;;;;;;;;16.70;99.90;;;;;;5065523;28;19913;-68
2022/11/08 09:07:06;;;;;;;;;;;16.70;99.90;;;;;;5054176;28;20017;-68
2022/11/08 09:09:33;;;;;;;;;;;17.10;99.90;;;;;;5056862;28;19920;-68
2022/11/08 09:11:58;;;;;;;;;;;18.00;99.90;;;;;;5054929;28;19920;-69
2022/11/08 09:14:24;;;;;;;;;;;18.50;99.90;;;;;;5057736;28;19921;-68
2022/11/08 09:16:49;;;;;;;;;;;19.50;99.90;;;;;;5055860;28;19920;-68
2022/11/08 09:19:14;;;;;;;;;;;19.30;99.90;;;;;;5055967;28;19920;-69
2022/11/08 09:21:40;;;;;;;;;;;19.30;99.90;;;;;;5056339;28;20004;-68
2022/11/08 09:24:05;;;;;;;;;;;19.30;99.90;;;;;;5059387;28;19935;-68
2022/11/08 09:26:31;;;;;;;;;;;19.30;99.90;;;;;;5050193;28;19923;-69
2022/11/08 09:28:56;;;;;;;;;;;19.10;99.90;;;;;;5074796;28;19924;-68
2022/11/08 09:31:22;;;;;;;;;;;18.80;99.90;;;;;;5068397;28;20314;-68
2022/11/08 09:33:48;;;;;;;;;;;18.40;99.90;;;;;;5048301;28;19959;-70
2022/11/08 09:36:14;;;;;;;;;;;17.80;99.90;;;;;;5047328;28;20325;-68
2022/11/08 09:38:40;;;;;;;;;;;17.60;99.90;;;;;;5043180;28;19975;-68
2022/11/08 09:41:23;;;;;;;;;;;17.40;99.90;;;;;;5071895;28;20398;-68
2022/11/08 09:43:57;;;;;;;;;;;17.50;99.90;;;;;;5054099;28;19916;-67
2022/11/08 09:46:29;;;;;;;;;;;17.60;99.90;;;;;;5055716;28;19921;-69
2022/11/08 09:48:57;;;;;;;;;;;17.80;99.90;;;;;;5051030;28;20290;-68
2022/11/08 09:51:23;;;;;;;;;;;18.00;99.90;;;;;;5057654;28;19913;-68
2022/11/08 09:53:57;;;;;;;;;;;17.90;99.90;;;;;;5056484;28;19913;-67
2022/11/08 09:56:31;;;;;;;;;;;17.90;99.90;;;;;;5056008;28;19909;-68
2022/11/08 09:59:17;;;;;;;;;;;17.60;99.90;;;;;;5055125;28;19920;-68
2022/11/08 10:01:42;;;;;;;;;;;17.60;99.90;;;;;;5059495;28;19912;-68
2022/11/08 10:04:12;;;;;;;;;;;17.50;99.90;;;;;;5047904;28;20095;-68
2022/11/08 10:06:44;;;;;;;;;;;17.60;99.90;;;;;;5045934;28;19921;-68
2022/11/08 10:09:29;;;;;;;;;;;17.90;99.90;;;;;;5053348;28;19912;-68
2022/11/08 10:12:15;;;;;;;;;;;18.40;99.90;;;;;;5055972;28;19909;-68
2022/11/08 10:14:48;;;;;;;;;;;18.90;99.90;;;;;;5048733;28;20369;-68
2022/11/08 10:17:24;;;;;;;;;;;19.30;99.90;;;;;;5050392;28;20405;-69
2022/11/08 10:20:09;;;;;;;;;;;19.40;99.90;;;;;;5057271;28;19913;-68
2022/11/08 10:22:41;;;;;;;;;;;19.00;99.90;;;;;;5062375;28;19916;-69
2022/11/08 10:25:26;;;;;;;;;;;18.80;99.90;;;;;;5052789;28;19956;-68
2022/11/08 10:27:54;;;;;;;;;;;18.70;99.90;;;;;;5061052;28;20015;-68
2022/11/08 10:30:22;;;;;;;;;;;18.60;99.90;;;;;;5045228;28;20390;-68
2022/11/08 10:32:49;;;;;;;;;;;18.60;99.90;;;;;;5056423;28;19966;-68
2022/11/08 10:35:20;;;;;;;;;;;18.40;99.90;;;;;;5059665;28;19908;-68
2022/11/08 10:37:48;;;;;;;;;;;18.40;99.90;;;;;;5037537;28;19913;-67
2022/11/08 10:40:18;;;;;;;;;;;18.00;99.90;;;;;;5055755;28;19985;-68
2022/11/08 10:42:46;;;;;;;;;;;17.90;99.90;;;;;;5054965;28;19959;-68
2022/11/08 10:45:12;;;;;;;;;;;18.00;99.90;;;;;;5055980;28;19943;-68
2022/11/08 10:47:38;;;;;;;;;;;18.00;99.90;;;;;;5067917;28;19920;-69
2022/11/08 10:50:12;;;;;;;;;;;18.00;99.90;;;;;;5050876;28;19916;-68
2022/11/08 10:52:44;;;;;;;;;;;17.90;99.90;;;;;;5034013;28;19963;-68
2022/11/08 10:55:26;;;;;;;;;;;17.90;99.90;;;;;;5058424;28;19954;-69
2022/11/08 10:57:52;;;;;;;;;;;18.00;99.90;;;;;;5065660;28;20374;-68
2022/11/08 11:03:14;;;;;;;;;;;18.00;99.90;;;;;;5089708;27;19922;-68
2022/11/08 11:05:41;;;;;;;;;;;18.00;99.90;;;;;;5091268;28;19916;-67
2022/11/08 11:08:09;;;;;;;;;;;18.00;99.90;;;;;;5090694;28;19912;-67
2022/11/08 11:13:22;;;;;;;;;;;17.80;99.90;;;;;;5089293;28;19917;-67
2022/11/08 11:18:35;;;;;;;;;;;17.70;99.90;;;;;;5090214;27;20389;-67
2022/11/08 11:21:03;;;;;;;;;;;17.60;99.90;;;;;;5090901;28;20373;-67
2022/11/08 11:23:33;;;;;;;;;;;17.50;99.90;;;;;;5076819;28;19912;-67
2022/11/08 11:25:59;;;;;;;;;;;17.50;99.90;;;;;;5072297;28;19920;-67
2022/11/08 11:28:24;;;;;;;;;;;17.50;99.90;;;;;;5070485;28;19909;-67
2022/11/08 11:30:58;;;;;;;;;;;17.50;99.90;;;;;;5062830;28;19909;-67
2022/11/08 11:33:25;;;;;;;;;;;17.40;99.90;;;;;;5063872;28;20397;-67
2022/11/08 11:35:54;;;;;;;;;;;17.30;99.90;;;;;;5067302;28;19954;-66
2022/11/08 11:38:38;;;;;;;;;;;17.30;99.90;;;;;;5071077;28;19917;-69
2022/11/08 11:41:08;;;;;;;;;;;17.20;99.90;;;;;;5058809;28;19920;-67
2022/11/08 11:43:37;;;;;;;;;;;17.10;99.90;;;;;;5061515;28;19955;-67
2022/11/08 11:46:22;;;;;;;;;;;17.10;99.90;;;;;;5077295;28;19998;-67
2022/11/08 11:48:51;;;;;;;;;;;17.00;99.90;;;;;;5050049;28;19913;-67
2022/11/08 11:51:16;;;;;;;;;;;16.90;99.90;;;;;;5054589;28;19913;-66
2022/11/08 11:53:42;;;;;;;;;;;17.00;99.90;;;;;;5088873;28;19920;-66
2022/11/08 11:56:17;;;;;;;;;;;17.00;99.90;;;;;;5072406;28;20290;-67
2022/11/08 11:59:02;;;;;;;;;;;17.00;99.90;;;;;;5055146;28;19959;-66
2022/11/08 12:01:46;;;;;;;;;;;17.10;99.90;;;;;;5049611;28;19909;-67
2022/11/08 12:04:32;;;;;;;;;;;17.20;99.90;;;;;;5069710;28;20418;-67
2022/11/08 12:07:07;;;;;;;;;;;17.20;99.90;;;;;;5066488;28;20371;-67
2022/11/08 12:09:53;;;;;;;;;;;17.20;99.90;;;;;;5068861;28;19970;-67
2022/11/08 12:12:38;;;;;;;;;;;17.20;99.90;;;;;;5057533;28;19935;-66
2022/11/08 12:15:18;;;;;;;;;;;17.20;99.90;;;;;;5066729;28;19917;-67
2022/11/08 12:17:55;;;;;;;;;;;17.10;99.90;;;;;;5067572;28;19933;-66
2022/11/08 12:20:34;;;;;;;;;;;17.00;99.90;;;;;;5103573;28;19921;-67
2022/11/08 12:23:20;;;;;;;;;;;17.10;99.90;;;;;;5088256;28;19908;-67
2022/11/08 12:25:55;;;;;;;;;;;17.20;99.90;;;;;;5052042;28;20382;-67
2022/11/08 12:28:41;;;;;;;;;;;17.20;99.90;;;;;;5057943;28;19920;-67
2022/11/08 12:31:19;;;;;;;;;;;17.20;99.90;;;;;;5050024;28;19913;-67
2022/11/08 12:33:48;;;;;;;;;;;17.20;99.90;;;;;;5056289;28;19919;-67
2022/11/08 12:36:19;;;;;;;;;;;17.20;99.90;;;;;;5055851;28;19919;-67
2022/11/08 12:39:05;;;;;;;;;;;17.10;99.90;;;;;;5072338;28;20361;-67
2022/11/08 12:41:44;;;;;;;;;;;17.10;99.90;;;;;;5075806;28;19958;-67
2022/11/08 12:44:29;;;;;;;;;;;17.00;99.90;;;;;;5041090;28;20004;-67
2022/11/08 12:47:06;;;;;;;;;;;17.00;99.90;;;;;;5039111;28;19916;-67
2022/11/08 12:49:38;;;;;;;;;;;16.90;99.90;;;;;;5075050;28;19917;-67
2022/11/08 12:52:15;;;;;;;;;;;16.90;99.90;;;;;;5090353;28;20346;-67
2022/11/08 12:54:46;;;;;;;;;;;17.00;99.90;;;;;;5088631;28;19924;-67
2022/11/08 12:57:15;;;;;;;;;;;17.10;99.90;;;;;;5055468;28;19917;-67
2022/11/08 12:59:43;;;;;;;;;;;17.20;99.90;;;;;;5055141;28;19913;-67
2022/11/08 13:02:14;;;;;;;;;;;17.30;99.90;;;;;;5053136;28;19929;-67
2022/11/08 13:04:44;;;;;;;;;;;17.30;99.90;;;;;;5036026;28;19909;-68
2022/11/08 13:07:30;;;;;;;;;;;17.30;99.90;;;;;;5107869;28;19962;-67
2022/11/08 13:10:01;;;;;;;;;;;17.20;99.90;;;;;;5075415;28;19931;-67
2022/11/08 13:12:37;;;;;;;;;;;17.00;99.90;;;;;;5068734;28;19919;-69
2022/11/08 13:15:03;;;;;;;;;;;17.00;99.90;;;;;;5046234;28;19920;-67
2022/11/08 13:17:29;;;;;;;;;;;17.10;99.90;;;;;;5067649;28;20247;-67
2022/11/08 13:19:56;;;;;;;;;;;17.10;99.90;;;;;;5050457;28;20367;-67
2022/11/08 13:25:27;;;;;;;;;;;17.10;99.90;;;;;;5064731;28;19939;-67
2022/11/08 13:27:53;;;;;;;;;;;17.10;99.90;;;;;;5060283;28;19912;-66
2022/11/08 13:33:02;;;;;;;;;;;17.10;99.90;;;;;;5090855;27;19912;-67
2022/11/08 13:35:47;;;;;;;;;;;17.00;99.90;;;;;;5080666;28;20345;-67
2022/11/08 13:38:18;;;;;;;;;;;17.00;99.90;;;;;;5081366;28;20290;-67
2022/11/08 13:41:01;;;;;;;;;;;17.00;99.90;;;;;;5092882;28;19920;-69
2022/11/08 13:43:28;;;;;;;;;;;17.00;99.90;;;;;;5072382;28;19999;-66
2022/11/08 13:45:54;;;;;;;;;;;17.00;99.90;;;;;;5077809;28;20011;-67
2022/11/08 13:48:25;;;;;;;;;;;17.10;99.90;;;;;;5075310;28;19959;-67
2022/11/08 13:50:53;;;;;;;;;;;17.00;99.90;;;;;;5061887;28;19917;-67
2022/11/08 13:53:21;;;;;;;;;;;17.00;99.90;;;;;;5067903;28;19931;-67
2022/11/08 13:55:49;;;;;;;;;;;17.10;99.90;;;;;;5051009;28;19975;-67
2022/11/08 14:04:21;;;;;;;;;;;17.00;99.90;;;;;;5068312;27;19927;-68
2022/11/08 14:07:06;;;;;;;;;;;17.10;99.90;;;;;;5080130;28;20015;-67
2022/11/08 14:09:51;;;;;;;;;;;17.00;99.90;;;;;;5063406;28;20000;-69
2022/11/08 14:12:22;;;;;;;;;;;16.90;99.90;;;;;;5058561;28;19958;-67
2022/11/08 14:14:59;;;;;;;;;;;16.90;99.90;;;;;;5061364;28;20287;-67
2022/11/08 14:17:28;;;;;;;;;;;16.80;99.90;;;;;;5064181;28;19917;-67
2022/11/08 14:19:55;;;;;;;;;;;16.80;99.90;;;;;;5068882;28;19955;-67
2022/11/08 14:22:23;;;;;;;;;;;16.70;99.90;;;;;;5064825;28;19979;-68
2022/11/08 14:24:50;;;;;;;;;;;16.60;99.90;;;;;;5068959;28;19909;-67
2022/11/08 14:27:31;;;;;;;;;;;16.60;99.90;;;;;;5069162;28;19956;-67
2022/11/08 14:29:58;;;;;;;;;;;16.60;99.90;;;;;;5066782;28;19913;-67
2022/11/08 14:32:24;;;;;;;;;;;16.60;99.90;;;;;;5073357;28;19955;-67
2022/11/08 14:34:49;;;;;;;;;;;16.60;99.90;;;;;;5067268;28;20422;-68
2022/11/08 14:37:23;;;;;;;;;;;16.60;99.90;;;;;;5067672;28;19969;-67
2022/11/08 14:39:50;;;;;;;;;;;16.60;99.90;;;;;;5069817;28;20286;-67
2022/11/08 14:42:21;;;;;;;;;;;16.50;99.90;;;;;;5068071;28;19920;-68
2022/11/08 14:44:46;;;;;;;;;;;16.50;99.90;;;;;;5068899;28;19944;-68
2022/11/08 14:47:29;;;;;;;;;;;16.40;99.90;;;;;;5075025;28;19956;-68
2022/11/08 14:49:55;;;;;;;;;;;16.40;99.90;;;;;;5070211;28;19913;-68
2022/11/08 14:52:22;;;;;;;;;;;16.30;99.90;;;;;;5068572;28;19920;-69
2022/11/08 14:54:48;;;;;;;;;;;16.40;99.90;;;;;;5098890;28;19913;-68
2022/11/08 14:57:34;;;;;;;;;;;16.40;99.90;;;;;;5058838;28;20264;-68
2022/11/08 15:00:01;;;;;;;;;;;16.40;99.90;;;;;;5068281;28;20019;-68
2022/11/08 15:02:26;;;;;;;;;;;16.30;99.90;;;;;;5074375;28;20685;-67